Rhoon, Netherlands
Current Conditions -  °F | °C
As of 5:25 AM on Wednesday 28 Jan 2015 (Local Time) from EHRD Reporting Station
Overcast Overcast  
Wind Chill: 35°   Ceiling: 3200
Heat Index: 43°   Visibility: 6mi
Dew Point: 39°   Wind: 15mph
Humidity: 87%   Direction: 210°SSW
Pressure: 29.91"   Gusts: NA
Location:  51.86°N, 4.42°E
Report Text: EHRD 280425Z AUTO 21013KT 180V240 9999 FEW013 SCT025 OVC03206/04 Q1013 NOSIG
Loading
Personal Weather Stations






























Interactive Weather Map New forecast layout! Learn more

10-Day Weather Forecast

Advertisements
Track Severe Weather on mobile